Time;durP1;ratioP1;P1;durP2;ratioP2;P2;SDS_P1;SDS_P2;PMS_P1;PMS_P2;Temp;Humidity;BMP_temperature;BMP_pressure;BME280_temperature;BME280_humidity;BME280_pressure;Samples;Min_cycle;Max_cycle;Signal;HPM_P1;HPM_P2
2022/03/24 00:01:16;;;;;;;;;;;5.50;70.30;;;;;;5020590;28;19974;-83
2022/03/24 00:03:42;;;;;;;;;;;5.50;69.90;;;;;;5052432;28;19983;-82
2022/03/24 00:06:08;;;;;;;;;;;5.40;69.50;;;;;;5069001;28;20001;-82
2022/03/24 00:08:34;;;;;;;;;;;5.40;69.00;;;;;;5019140;28;19925;-83
2022/03/24 00:11:00;;;;;;;;;;;5.40;68.90;;;;;;5052300;28;19986;-82
2022/03/24 00:13:26;;;;;;;;;;;5.30;69.40;;;;;;5052991;28;19925;-82
2022/03/24 00:15:51;;;;;;;;;;;5.30;70.10;;;;;;5035624;28;19919;-82
2022/03/24 00:18:17;;;;;;;;;;;5.30;70.80;;;;;;5019705;28;20035;-83
2022/03/24 00:20:42;;;;;;;;;;;5.20;70.70;;;;;;5035784;28;19912;-83
2022/03/24 00:23:09;;;;;;;;;;;5.20;71.30;;;;;;5055747;28;19978;-82
2022/03/24 00:25:34;;;;;;;;;;;5.20;73.90;;;;;;5016726;28;19917;-82
2022/03/24 00:28:00;;;;;;;;;;;5.10;74.30;;;;;;5051807;28;19966;-82
2022/03/24 00:30:26;;;;;;;;;;;5.10;75.50;;;;;;5034764;28;20104;-81
2022/03/24 00:32:52;;;;;;;;;;;5.00;76.50;;;;;;5043892;28;19921;-81
2022/03/24 00:35:17;;;;;;;;;;;5.00;77.30;;;;;;5034472;28;19920;-81
2022/03/24 00:37:43;;;;;;;;;;;5.00;76.80;;;;;;5051960;28;19917;-82
2022/03/24 00:40:09;;;;;;;;;;;5.00;77.20;;;;;;5014808;28;19918;-83
2022/03/24 00:42:36;;;;;;;;;;;5.00;77.10;;;;;;5050852;23;20015;-86
2022/03/24 00:45:02;;;;;;;;;;;5.00;77.10;;;;;;5070954;28;19924;-86
2022/03/24 00:47:27;;;;;;;;;;;5.00;77.10;;;;;;5063099;28;19917;-86
2022/03/24 00:49:53;;;;;;;;;;;5.00;76.60;;;;;;5062068;28;20284;-86
2022/03/24 00:52:18;;;;;;;;;;;4.90;77.30;;;;;;5072584;28;19932;-86
2022/03/24 00:54:44;;;;;;;;;;;4.90;77.00;;;;;;5061733;28;20152;-86
2022/03/24 00:57:09;;;;;;;;;;;4.90;77.80;;;;;;5072892;28;20008;-86
2022/03/24 00:59:35;;;;;;;;;;;4.80;78.30;;;;;;5064290;28;20403;-86
2022/03/24 01:02:00;;;;;;;;;;;4.80;77.80;;;;;;5070204;28;19921;-86
2022/03/24 01:04:26;;;;;;;;;;;4.70;78.30;;;;;;5061834;28;19924;-86
2022/03/24 01:06:51;;;;;;;;;;;4.70;78.60;;;;;;5066950;28;19917;-86
2022/03/24 01:09:17;;;;;;;;;;;4.70;80.70;;;;;;5060904;28;19935;-86
2022/03/24 01:11:42;;;;;;;;;;;4.60;82.00;;;;;;5071961;28;19973;-86
2022/03/24 01:14:08;;;;;;;;;;;4.60;81.70;;;;;;5073463;28;19913;-86
2022/03/24 01:16:35;;;;;;;;;;;4.60;81.90;;;;;;5071436;28;19913;-86
2022/03/24 01:19:01;;;;;;;;;;;4.60;81.90;;;;;;5062300;28;19921;-86
2022/03/24 01:21:26;;;;;;;;;;;4.60;81.60;;;;;;5074225;28;19919;-86
2022/03/24 01:23:53;;;;;;;;;;;4.60;83.40;;;;;;5063391;28;19921;-86
2022/03/24 01:26:18;;;;;;;;;;;4.60;83.70;;;;;;5075820;28;19916;-87
2022/03/24 01:28:44;;;;;;;;;;;4.60;83.10;;;;;;5070444;28;20287;-86
2022/03/24 01:31:10;;;;;;;;;;;4.50;81.70;;;;;;5063158;28;19920;-86
2022/03/24 01:33:38;;;;;;;;;;;4.50;82.50;;;;;;5064417;28;19910;-86
2022/03/24 01:36:08;;;;;;;;;;;4.50;82.00;;;;;;5069104;28;20030;-87
2022/03/24 01:38:34;;;;;;;;;;;4.40;82.30;;;;;;5061360;28;19980;-86
2022/03/24 01:41:00;;;;;;;;;;;4.40;82.90;;;;;;5077103;28;20486;-86
2022/03/24 01:43:25;;;;;;;;;;;4.30;84.70;;;;;;5058651;28;19966;-86
2022/03/24 01:45:51;;;;;;;;;;;4.30;86.80;;;;;;5076042;28;19913;-86
2022/03/24 01:48:17;;;;;;;;;;;4.30;85.60;;;;;;5064542;28;20277;-86
2022/03/24 01:50:44;;;;;;;;;;;4.30;85.50;;;;;;5066640;28;20309;-86
2022/03/24 01:53:10;;;;;;;;;;;4.20;86.60;;;;;;5067926;28;19912;-86
2022/03/24 01:55:38;;;;;;;;;;;4.20;86.90;;;;;;5075743;28;19971;-86
2022/03/24 01:58:04;;;;;;;;;;;4.20;87.40;;;;;;5060564;28;19916;-86
2022/03/24 02:00:31;;;;;;;;;;;4.30;87.60;;;;;;5079318;28;19952;-86
2022/03/24 02:03:02;;;;;;;;;;;4.30;87.60;;;;;;5067753;28;19913;-86
2022/03/24 02:05:29;;;;;;;;;;;4.30;87.40;;;;;;5073628;28;19935;-86
2022/03/24 02:07:55;;;;;;;;;;;4.30;86.60;;;;;;5076876;28;19921;-85
2022/03/24 02:10:20;;;;;;;;;;;4.30;86.80;;;;;;5061384;28;19924;-86
2022/03/24 02:12:46;;;;;;;;;;;4.30;86.20;;;;;;5054854;28;19931;-86
2022/03/24 02:15:11;;;;;;;;;;;4.30;85.90;;;;;;5063336;28;19970;-86
2022/03/24 02:17:39;;;;;;;;;;;4.30;85.60;;;;;;5062227;28;19921;-86
2022/03/24 02:20:06;;;;;;;;;;;4.30;85.60;;;;;;5058502;28;19912;-86
2022/03/24 02:22:31;;;;;;;;;;;4.30;85.10;;;;;;5064326;28;19935;-85
2022/03/24 02:24:57;;;;;;;;;;;4.20;84.90;;;;;;5050430;28;20398;-86
2022/03/24 02:27:24;;;;;;;;;;;4.20;85.20;;;;;;5069330;28;19939;-86
2022/03/24 02:29:50;;;;;;;;;;;4.20;85.90;;;;;;5053939;28;19916;-86
2022/03/24 02:32:16;;;;;;;;;;;4.10;86.10;;;;;;5064146;28;19931;-85
2022/03/24 02:34:47;;;;;;;;;;;4.10;86.50;;;;;;5053166;28;19920;-86
2022/03/24 02:37:14;;;;;;;;;;;4.00;86.10;;;;;;5049660;28;19940;-86
2022/03/24 02:39:41;;;;;;;;;;;3.90;86.90;;;;;;5068136;28;19916;-86
2022/03/24 02:42:07;;;;;;;;;;;3.90;87.50;;;;;;5070605;28;20070;-85
2022/03/24 02:44:33;;;;;;;;;;;3.80;87.50;;;;;;5066211;28;19931;-86
2022/03/24 02:47:00;;;;;;;;;;;3.80;88.50;;;;;;5061472;28;19929;-86
2022/03/24 02:49:27;;;;;;;;;;;3.70;89.10;;;;;;5068070;28;19975;-85
2022/03/24 02:51:53;;;;;;;;;;;3.70;88.90;;;;;;5055966;28;20281;-85
2022/03/24 02:54:20;;;;;;;;;;;3.70;89.70;;;;;;5071627;28;19913;-86
2022/03/24 02:56:46;;;;;;;;;;;3.60;89.70;;;;;;5056847;28;19921;-85
2022/03/24 02:59:12;;;;;;;;;;;3.60;89.60;;;;;;5060321;28;19985;-85
2022/03/24 03:01:41;;;;;;;;;;;3.60;90.00;;;;;;5057372;28;20292;-86
2022/03/24 03:04:07;;;;;;;;;;;3.50;90.10;;;;;;5072834;28;19974;-85
2022/03/24 03:06:33;;;;;;;;;;;3.50;90.00;;;;;;5062047;28;19916;-85
2022/03/24 03:09:01;;;;;;;;;;;3.40;90.20;;;;;;5059044;28;19917;-84
2022/03/24 03:11:26;;;;;;;;;;;3.40;91.00;;;;;;5071346;28;19917;-86
2022/03/24 03:13:52;;;;;;;;;;;3.40;91.50;;;;;;5069251;28;20008;-85
2022/03/24 03:16:18;;;;;;;;;;;3.40;91.60;;;;;;5063226;28;19982;-85
2022/03/24 03:18:44;;;;;;;;;;;3.40;91.50;;;;;;5062051;28;19917;-86
2022/03/24 03:21:09;;;;;;;;;;;3.30;91.50;;;;;;5060128;28;19921;-85
2022/03/24 03:23:38;;;;;;;;;;;3.30;91.30;;;;;;5062551;28;20410;-85
2022/03/24 03:26:11;;;;;;;;;;;3.30;91.80;;;;;;5068654;28;20420;-85
2022/03/24 03:28:37;;;;;;;;;;;3.30;92.10;;;;;;5062077;28;19919;-86
2022/03/24 03:31:05;;;;;;;;;;;3.20;92.40;;;;;;5060363;28;20385;-85
2022/03/24 03:33:33;;;;;;;;;;;3.20;92.40;;;;;;5064774;28;19913;-85
2022/03/24 03:35:59;;;;;;;;;;;3.20;92.50;;;;;;5064128;28;19919;-86
2022/03/24 03:38:24;;;;;;;;;;;3.20;92.40;;;;;;5059366;28;19917;-85
2022/03/24 03:40:50;;;;;;;;;;;3.20;92.20;;;;;;5057320;28;20297;-85
2022/03/24 03:43:15;;;;;;;;;;;3.20;92.80;;;;;;5072948;28;19962;-85
2022/03/24 03:45:41;;;;;;;;;;;3.20;93.00;;;;;;5058797;28;19920;-85
2022/03/24 03:48:07;;;;;;;;;;;3.30;92.90;;;;;;5073488;28;20294;-85
2022/03/24 03:50:32;;;;;;;;;;;3.20;92.70;;;;;;5053515;28;20027;-85
2022/03/24 03:52:58;;;;;;;;;;;3.30;92.50;;;;;;5067128;28;19971;-85
2022/03/24 03:55:23;;;;;;;;;;;3.30;92.40;;;;;;5055646;28;20396;-86
2022/03/24 03:57:49;;;;;;;;;;;3.30;92.20;;;;;;5062838;28;19966;-86
2022/03/24 04:03:03;;;;;;;;;;;3.30;92.20;;;;;;5059467;28;20388;-85
2022/03/24 04:05:33;;;;;;;;;;;3.30;92.30;;;;;;5055470;28;19962;-85
2022/03/24 04:07:59;;;;;;;;;;;3.20;92.20;;;;;;5052739;28;19923;-85
2022/03/24 04:10:27;;;;;;;;;;;3.20;92.30;;;;;;5068793;28;20003;-85
2022/03/24 04:12:53;;;;;;;;;;;3.20;92.50;;;;;;5047752;28;19932;-86
2022/03/24 04:15:18;;;;;;;;;;;3.20;92.70;;;;;;5067890;28;20365;-85
2022/03/24 04:17:44;;;;;;;;;;;3.10;92.40;;;;;;5060086;28;19920;-85
2022/03/24 04:20:10;;;;;;;;;;;3.10;92.70;;;;;;5053780;28;19942;-85
2022/03/24 04:22:36;;;;;;;;;;;3.00;93.20;;;;;;5068585;28;19923;-85
2022/03/24 04:25:02;;;;;;;;;;;3.00;93.40;;;;;;5058059;28;20355;-86
2022/03/24 04:27:28;;;;;;;;;;;3.00;93.60;;;;;;5062704;28;19913;-85
2022/03/24 04:29:53;;;;;;;;;;;3.00;93.30;;;;;;5057489;28;19923;-85
2022/03/24 04:32:18;;;;;;;;;;;3.00;93.00;;;;;;5058664;28;19927;-85
2022/03/24 04:34:45;;;;;;;;;;;3.00;92.80;;;;;;5055560;28;19923;-85
2022/03/24 04:37:11;;;;;;;;;;;3.10;92.90;;;;;;5044397;28;19920;-85
2022/03/24 04:39:36;;;;;;;;;;;3.10;92.90;;;;;;5064168;28;21265;-85
2022/03/24 04:42:02;;;;;;;;;;;3.10;92.90;;;;;;5060470;28;19916;-85
2022/03/24 04:44:27;;;;;;;;;;;3.00;93.00;;;;;;5059577;28;20309;-85
2022/03/24 04:46:53;;;;;;;;;;;3.00;93.10;;;;;;5060729;28;19912;-85
2022/03/24 04:49:18;;;;;;;;;;;2.90;92.90;;;;;;5062138;28;19975;-85
2022/03/24 04:51:44;;;;;;;;;;;2.80;92.90;;;;;;5063053;28;20351;-86
2022/03/24 04:54:10;;;;;;;;;;;2.80;93.20;;;;;;5058792;28;19955;-85
2022/03/24 04:56:35;;;;;;;;;;;2.70;93.30;;;;;;5065064;28;19948;-85
2022/03/24 04:59:01;;;;;;;;;;;2.70;93.50;;;;;;5054427;28;19913;-85
2022/03/24 05:01:26;;;;;;;;;;;2.70;93.70;;;;;;5066551;28;20035;-85
2022/03/24 05:03:52;;;;;;;;;;;2.60;94.10;;;;;;5058195;28;19920;-85
2022/03/24 05:06:17;;;;;;;;;;;2.60;93.60;;;;;;5069161;28;19999;-85
2022/03/24 05:08:43;;;;;;;;;;;2.60;93.50;;;;;;5055710;28;19920;-85
2022/03/24 05:11:08;;;;;;;;;;;2.50;93.70;;;;;;5063376;28;19920;-85
2022/03/24 05:13:34;;;;;;;;;;;2.50;94.30;;;;;;5062040;28;19961;-85
2022/03/24 05:15:59;;;;;;;;;;;2.40;94.90;;;;;;5066938;28;20031;-85
2022/03/24 05:18:25;;;;;;;;;;;2.40;95.80;;;;;;5073581;28;20403;-86
2022/03/24 05:20:51;;;;;;;;;;;2.40;96.50;;;;;;5072555;28;19934;-86
2022/03/24 05:23:16;;;;;;;;;;;2.40;96.40;;;;;;5063832;28;19917;-86
2022/03/24 05:25:43;;;;;;;;;;;2.30;96.40;;;;;;5067313;28;19992;-86
2022/03/24 05:28:09;;;;;;;;;;;2.30;96.20;;;;;;5071289;28;20270;-86
2022/03/24 05:30:36;;;;;;;;;;;2.30;96.00;;;;;;5062881;28;20003;-86
2022/03/24 05:33:02;;;;;;;;;;;2.30;96.00;;;;;;5060148;28;19928;-86
2022/03/24 05:35:29;;;;;;;;;;;2.30;96.10;;;;;;5072329;28;19920;-86
2022/03/24 05:37:55;;;;;;;;;;;2.40;96.10;;;;;;5065007;28;19940;-85
2022/03/24 05:40:21;;;;;;;;;;;2.40;96.40;;;;;;5061964;28;19912;-86
2022/03/24 05:42:46;;;;;;;;;;;2.40;95.90;;;;;;5058811;28;19959;-85
2022/03/24 05:45:12;;;;;;;;;;;2.40;95.50;;;;;;5072515;28;19927;-86
2022/03/24 05:47:37;;;;;;;;;;;2.40;95.60;;;;;;5067467;28;19913;-86
2022/03/24 05:50:03;;;;;;;;;;;2.50;95.60;;;;;;5063820;28;20270;-85
2022/03/24 05:52:28;;;;;;;;;;;2.50;95.70;;;;;;5068789;28;19916;-86
2022/03/24 05:54:54;;;;;;;;;;;2.50;95.80;;;;;;5040222;28;20385;-86
2022/03/24 05:57:20;;;;;;;;;;;2.60;95.70;;;;;;5063995;28;19959;-86
2022/03/24 05:59:46;;;;;;;;;;;2.70;95.70;;;;;;5060985;28;19917;-86
2022/03/24 06:02:13;;;;;;;;;;;2.70;96.00;;;;;;5062986;28;19917;-86
2022/03/24 06:04:42;;;;;;;;;;;2.80;95.90;;;;;;5055175;28;20353;-86
2022/03/24 06:07:08;;;;;;;;;;;2.90;95.50;;;;;;5051490;28;19913;-86
2022/03/24 06:09:34;;;;;;;;;;;2.90;95.20;;;;;;5051333;28;20014;-86
2022/03/24 06:12:00;;;;;;;;;;;3.00;95.00;;;;;;5052623;28;20343;-86
2022/03/24 06:14:25;;;;;;;;;;;3.00;95.10;;;;;;5051580;28;19932;-86
2022/03/24 06:16:51;;;;;;;;;;;3.00;95.70;;;;;;5052918;28;20262;-86
2022/03/24 06:19:16;;;;;;;;;;;3.10;96.10;;;;;;5051892;28;19917;-86
2022/03/24 06:21:42;;;;;;;;;;;3.20;96.30;;;;;;5068444;28;19920;-86
2022/03/24 06:24:08;;;;;;;;;;;3.30;96.20;;;;;;5071295;28;19991;-86
2022/03/24 06:26:33;;;;;;;;;;;3.40;95.30;;;;;;5070367;28;19928;-87
2022/03/24 06:29:01;;;;;;;;;;;3.50;94.70;;;;;;5060022;28;20168;-85
2022/03/24 06:31:27;;;;;;;;;;;3.60;94.30;;;;;;5069986;28;20288;-86
2022/03/24 06:33:53;;;;;;;;;;;3.60;94.10;;;;;;5058360;28;19999;-86
2022/03/24 06:36:19;;;;;;;;;;;3.70;93.80;;;;;;5065702;28;20412;-86
2022/03/24 06:38:45;;;;;;;;;;;3.80;93.60;;;;;;5060809;28;19909;-86
2022/03/24 06:41:10;;;;;;;;;;;3.90;93.40;;;;;;5068896;28;20373;-86
2022/03/24 06:43:36;;;;;;;;;;;3.90;93.30;;;;;;5087075;22;19935;-83
2022/03/24 06:46:02;;;;;;;;;;;4.00;93.00;;;;;;5048345;28;20380;-84
2022/03/24 06:48:28;;;;;;;;;;;4.10;92.70;;;;;;5038316;28;20023;-84
2022/03/24 06:50:53;;;;;;;;;;;4.20;92.40;;;;;;5031393;28;19952;-84
2022/03/24 06:53:19;;;;;;;;;;;4.40;92.20;;;;;;5044950;28;20002;-84
2022/03/24 06:55:44;;;;;;;;;;;4.50;92.00;;;;;;5016877;28;20385;-84
2022/03/24 06:58:10;;;;;;;;;;;4.60;91.90;;;;;;5030919;28;19929;-83
2022/03/24 07:00:35;;;;;;;;;;;4.70;91.40;;;;;;5036224;28;20323;-84
2022/03/24 07:03:01;;;;;;;;;;;4.90;90.80;;;;;;5030680;28;19994;-84
2022/03/24 07:05:27;;;;;;;;;;;5.00;90.30;;;;;;5018349;28;19930;-83
2022/03/24 07:07:54;;;;;;;;;;;5.10;90.00;;;;;;5041030;28;19967;-83
2022/03/24 07:10:20;;;;;;;;;;;5.20;89.50;;;;;;5045009;28;20485;-84
2022/03/24 07:12:48;;;;;;;;;;;5.30;88.40;;;;;;5033802;28;20015;-83
2022/03/24 07:15:14;;;;;;;;;;;5.40;88.30;;;;;;5024403;28;19917;-84
2022/03/24 07:17:39;;;;;;;;;;;5.60;88.70;;;;;;5029805;28;19918;-83
2022/03/24 07:20:06;;;;;;;;;;;5.60;88.80;;;;;;5030174;28;20340;-82
2022/03/24 07:22:35;;;;;;;;;;;5.70;88.60;;;;;;5024817;28;19913;-83
2022/03/24 07:25:02;;;;;;;;;;;5.90;88.90;;;;;;5035258;28;20604;-83
2022/03/24 07:27:28;;;;;;;;;;;5.90;88.40;;;;;;5041967;28;19920;-83
2022/03/24 07:29:53;;;;;;;;;;;6.00;88.00;;;;;;5017620;28;19917;-83
2022/03/24 07:32:19;;;;;;;;;;;6.10;87.40;;;;;;5025813;28;20408;-83
2022/03/24 07:34:45;;;;;;;;;;;6.20;86.10;;;;;;5022042;28;19917;-84
2022/03/24 07:37:10;;;;;;;;;;;6.30;84.60;;;;;;5035256;28;19940;-84
2022/03/24 07:39:36;;;;;;;;;;;6.40;82.40;;;;;;5048242;28;20008;-83
2022/03/24 07:42:02;;;;;;;;;;;6.50;81.70;;;;;;5015724;28;20162;-83
2022/03/24 07:44:27;;;;;;;;;;;6.60;81.60;;;;;;5049172;28;19952;-84
2022/03/24 07:46:52;;;;;;;;;;;6.70;81.30;;;;;;5016537;28;20016;-84
2022/03/24 07:49:18;;;;;;;;;;;6.80;80.50;;;;;;5048383;28;19917;-84
2022/03/24 07:51:44;;;;;;;;;;;6.90;79.30;;;;;;5036225;28;20278;-84
2022/03/24 07:54:10;;;;;;;;;;;7.10;77.80;;;;;;5045139;28;19914;-83
2022/03/24 07:56:37;;;;;;;;;;;7.10;76.70;;;;;;5047391;28;20422;-83
2022/03/24 07:59:04;;;;;;;;;;;7.30;75.80;;;;;;5033529;28;19923;-83
2022/03/24 08:01:34;;;;;;;;;;;7.40;74.80;;;;;;5023547;28;19913;-82
2022/03/24 08:04:00;;;;;;;;;;;7.60;76.10;;;;;;5039385;28;19921;-84
2022/03/24 08:06:28;;;;;;;;;;;7.70;79.50;;;;;;5048770;28;20050;-83
2022/03/24 08:08:54;;;;;;;;;;;7.90;81.30;;;;;;5027813;28;20319;-83
2022/03/24 08:11:19;;;;;;;;;;;8.10;82.40;;;;;;5044776;28;19924;-84
2022/03/24 08:13:50;;;;;;;;;;;8.20;82.00;;;;;;5022477;28;20015;-83
2022/03/24 08:16:15;;;;;;;;;;;8.30;79.30;;;;;;5046758;28;20393;-84
2022/03/24 08:18:41;;;;;;;;;;;8.50;76.10;;;;;;5035102;28;19975;-84
2022/03/24 08:21:07;;;;;;;;;;;8.60;73.90;;;;;;5039238;28;20408;-83
2022/03/24 08:23:32;;;;;;;;;;;8.80;72.60;;;;;;5040871;28;19920;-83
2022/03/24 08:25:57;;;;;;;;;;;8.90;71.00;;;;;;5019839;28;20348;-84
2022/03/24 08:28:23;;;;;;;;;;;9.00;71.00;;;;;;5043750;28;19929;-84
2022/03/24 08:30:48;;;;;;;;;;;9.20;71.50;;;;;;5041556;28;19917;-84
2022/03/24 08:33:14;;;;;;;;;;;9.30;70.40;;;;;;5038516;28;19913;-84
2022/03/24 08:35:40;;;;;;;;;;;9.50;70.10;;;;;;5040604;28;19958;-84
2022/03/24 08:38:06;;;;;;;;;;;9.60;68.70;;;;;;5041025;28;20000;-84
2022/03/24 08:40:32;;;;;;;;;;;9.80;68.40;;;;;;5039907;28;20016;-84
2022/03/24 08:42:57;;;;;;;;;;;9.90;69.70;;;;;;5041339;28;19928;-84
2022/03/24 08:45:23;;;;;;;;;;;10.00;71.00;;;;;;5045721;28;19928;-85
2022/03/24 08:47:49;;;;;;;;;;;10.20;69.20;;;;;;5036365;28;20354;-84
2022/03/24 08:50:15;;;;;;;;;;;10.30;66.60;;;;;;5041741;28;19919;-85
2022/03/24 08:52:41;;;;;;;;;;;10.40;65.30;;;;;;5047922;28;19963;-86
2022/03/24 08:55:07;;;;;;;;;;;10.50;63.90;;;;;;5035976;28;19913;-85
2022/03/24 08:57:33;;;;;;;;;;;10.60;61.90;;;;;;5046311;28;20278;-85
2022/03/24 09:00:03;;;;;;;;;;;10.70;60.00;;;;;;5042154;28;19917;-85
2022/03/24 09:02:28;;;;;;;;;;;10.80;59.30;;;;;;5025784;28;19925;-84
2022/03/24 09:04:54;;;;;;;;;;;10.90;58.20;;;;;;5044105;28;19917;-84
2022/03/24 09:07:20;;;;;;;;;;;11.00;57.60;;;;;;5032266;28;19913;-84
2022/03/24 09:09:45;;;;;;;;;;;11.20;57.20;;;;;;5015588;28;19928;-84
2022/03/24 09:12:11;;;;;;;;;;;11.30;57.70;;;;;;5043143;28;19920;-84
2022/03/24 09:14:37;;;;;;;;;;;11.40;57.10;;;;;;5035810;28;19919;-84
2022/03/24 09:17:03;;;;;;;;;;;11.50;56.40;;;;;;5045752;28;19952;-84
2022/03/24 09:19:29;;;;;;;;;;;11.70;57.10;;;;;;5033499;28;19999;-84
2022/03/24 09:21:54;;;;;;;;;;;11.80;55.80;;;;;;5046080;28;19978;-84
2022/03/24 09:24:20;;;;;;;;;;;11.90;54.80;;;;;;5033834;28;19952;-84
2022/03/24 09:26:45;;;;;;;;;;;12.00;53.80;;;;;;5039991;28;19912;-84
2022/03/24 09:29:11;;;;;;;;;;;12.10;53.40;;;;;;5039370;28;20004;-84
2022/03/24 09:31:36;;;;;;;;;;;12.20;53.70;;;;;;5013472;28;19923;-84
2022/03/24 09:34:03;;;;;;;;;;;12.30;53.50;;;;;;5013081;28;19913;-85
2022/03/24 09:36:29;;;;;;;;;;;12.50;52.20;;;;;;5013404;28;20350;-84
2022/03/24 09:38:54;;;;;;;;;;;12.70;51.80;;;;;;5030953;28;19996;-84
2022/03/24 09:41:20;;;;;;;;;;;12.80;50.60;;;;;;5031195;28;19949;-84
2022/03/24 09:43:46;;;;;;;;;;;13.00;48.90;;;;;;5030969;28;20000;-84
2022/03/24 09:46:11;;;;;;;;;;;13.10;47.80;;;;;;4996755;28;19979;-84
2022/03/24 09:48:37;;;;;;;;;;;13.20;46.70;;;;;;5029672;28;19913;-84
2022/03/24 09:51:02;;;;;;;;;;;13.40;47.30;;;;;;5030911;28;19932;-84
2022/03/24 09:53:28;;;;;;;;;;;13.50;49.50;;;;;;5013568;28;20000;-84
2022/03/24 09:55:54;;;;;;;;;;;13.60;50.00;;;;;;5013399;28;19913;-84
2022/03/24 09:58:23;;;;;;;;;;;13.60;49.50;;;;;;5029864;28;20181;-84
2022/03/24 10:00:48;;;;;;;;;;;13.70;48.80;;;;;;5031303;28;19920;-86
2022/03/24 10:03:16;;;;;;;;;;;13.90;47.60;;;;;;5013576;28;19913;-84
2022/03/24 10:05:53;;;;;;;;;;;14.00;48.20;;;;;;5031930;28;20304;-85
2022/03/24 10:08:19;;;;;;;;;;;14.10;48.00;;;;;;5015236;28;20300;-86
2022/03/24 10:10:44;;;;;;;;;;;14.20;46.80;;;;;;4998975;28;19913;-86
2022/03/24 10:13:10;;;;;;;;;;;14.30;47.10;;;;;;5033316;28;20016;-86
2022/03/24 10:15:37;;;;;;;;;;;14.40;46.30;;;;;;5033705;28;19936;-86
2022/03/24 10:18:03;;;;;;;;;;;14.50;45.60;;;;;;5032974;28;20016;-86
2022/03/24 10:20:29;;;;;;;;;;;14.60;45.40;;;;;;5015110;28;19956;-86
2022/03/24 10:22:56;;;;;;;;;;;14.60;44.10;;;;;;5033864;28;20369;-86
2022/03/24 10:25:26;;;;;;;;;;;14.50;44.00;;;;;;5033301;28;19970;-86
2022/03/24 10:28:17;;;;;;;;;;;14.50;42.60;;;;;;5033551;28;20439;-85
2022/03/24 10:30:58;;;;;;;;;;;14.60;42.80;;;;;;5015918;28;19975;-86
2022/03/24 10:33:30;;;;;;;;;;;14.70;44.10;;;;;;5033781;28;20438;-85
2022/03/24 10:36:05;;;;;;;;;;;14.80;45.60;;;;;;5033644;28;20392;-85
2022/03/24 10:38:31;;;;;;;;;;;14.80;45.20;;;;;;5032726;28;19968;-85
2022/03/24 10:40:56;;;;;;;;;;;15.00;42.70;;;;;;5033975;28;19909;-85
2022/03/24 10:43:22;;;;;;;;;;;15.20;42.90;;;;;;5014740;28;20396;-86
2022/03/24 10:45:48;;;;;;;;;;;15.40;43.20;;;;;;5034572;28;19923;-87
2022/03/24 10:48:20;;;;;;;;;;;15.40;42.20;;;;;;5032935;28;19917;-82
2022/03/24 10:50:46;;;;;;;;;;;15.50;42.20;;;;;;5033606;28;19909;-86
2022/03/24 10:53:16;;;;;;;;;;;15.50;44.00;;;;;;5034306;28;20312;-85
2022/03/24 10:55:45;;;;;;;;;;;15.60;45.30;;;;;;5033705;28;20004;-86
2022/03/24 10:58:17;;;;;;;;;;;15.70;44.90;;;;;;5035424;28;19999;-86
2022/03/24 11:00:42;;;;;;;;;;;15.80;43.10;;;;;;5038862;28;19920;-86
2022/03/24 11:03:08;;;;;;;;;;;15.80;41.50;;;;;;5038714;28;19935;-86
2022/03/24 11:05:34;;;;;;;;;;;15.90;42.70;;;;;;5023105;28;19913;-86
2022/03/24 11:07:59;;;;;;;;;;;16.00;42.50;;;;;;5042489;28;19936;-82
2022/03/24 11:10:25;;;;;;;;;;;16.00;41.60;;;;;;5041145;28;20000;-83
2022/03/24 11:12:53;;;;;;;;;;;16.10;43.00;;;;;;5036458;28;19928;-84
2022/03/24 11:15:19;;;;;;;;;;;16.20;40.40;;;;;;5034859;28;19987;-84
2022/03/24 11:17:46;;;;;;;;;;;16.30;44.30;;;;;;5034209;28;19959;-86
2022/03/24 11:20:15;;;;;;;;;;;16.30;44.40;;;;;;5033795;28;19913;-84
2022/03/24 11:22:49;;;;;;;;;;;16.30;43.00;;;;;;5033952;28;20329;-85
2022/03/24 11:25:15;;;;;;;;;;;16.30;38.70;;;;;;5034458;28;19909;-84
2022/03/24 11:27:41;;;;;;;;;;;16.40;40.10;;;;;;5016996;28;19909;-84
2022/03/24 11:30:08;;;;;;;;;;;16.40;44.30;;;;;;5033183;28;19916;-84
2022/03/24 11:32:35;;;;;;;;;;;16.50;43.00;;;;;;5016011;28;19925;-84
2022/03/24 11:35:05;;;;;;;;;;;16.50;41.70;;;;;;5033903;28;20385;-84
2022/03/24 11:37:30;;;;;;;;;;;16.60;40.90;;;;;;5034047;28;19999;-85
2022/03/24 11:40:02;;;;;;;;;;;16.60;39.50;;;;;;5033424;28;20035;-85
2022/03/24 11:42:27;;;;;;;;;;;16.60;39.80;;;;;;5033704;28;20366;-85
2022/03/24 11:44:56;;;;;;;;;;;16.70;42.60;;;;;;5033969;28;20016;-86
2022/03/24 11:47:24;;;;;;;;;;;16.70;40.40;;;;;;5034171;28;19913;-84
2022/03/24 11:50:09;;;;;;;;;;;16.80;39.40;;;;;;5033319;28;19913;-84
2022/03/24 11:52:35;;;;;;;;;;;16.80;38.90;;;;;;5033622;28;19917;-84
2022/03/24 11:55:00;;;;;;;;;;;16.90;38.70;;;;;;5034659;28;19910;-84
2022/03/24 11:57:26;;;;;;;;;;;16.90;40.80;;;;;;5033467;28;19913;-83
2022/03/24 12:00:10;;;;;;;;;;;16.90;39.60;;;;;;5033011;28;20328;-84
2022/03/24 12:02:35;;;;;;;;;;;17.00;39.10;;;;;;5033307;28;20374;-84
2022/03/24 12:05:01;;;;;;;;;;;17.00;39.00;;;;;;5033630;28;19913;-84
2022/03/24 12:07:26;;;;;;;;;;;17.00;39.90;;;;;;5015900;28;20330;-86
2022/03/24 12:10:00;;;;;;;;;;;17.00;39.60;;;;;;5031774;28;19909;-85
2022/03/24 12:12:26;;;;;;;;;;;17.10;38.80;;;;;;5033360;28;19913;-85
2022/03/24 12:14:54;;;;;;;;;;;17.10;38.10;;;;;;5008860;28;19945;-85
2022/03/24 12:17:36;;;;;;;;;;;17.10;38.40;;;;;;5034567;28;19913;-84
2022/03/24 12:20:03;;;;;;;;;;;17.20;40.20;;;;;;5033330;28;19952;-84
2022/03/24 12:22:30;;;;;;;;;;;17.20;38.90;;;;;;5015150;28;19924;-85
2022/03/24 12:24:59;;;;;;;;;;;17.20;39.80;;;;;;5015545;28;19983;-85
2022/03/24 12:27:24;;;;;;;;;;;17.20;38.90;;;;;;5033200;28;19932;-84
2022/03/24 12:30:09;;;;;;;;;;;17.30;39.10;;;;;;5013669;28;20289;-85
2022/03/24 12:32:34;;;;;;;;;;;17.30;39.60;;;;;;5032931;28;19913;-85
2022/03/24 12:35:00;;;;;;;;;;;17.40;39.70;;;;;;5032772;28;19916;-84
2022/03/24 12:37:25;;;;;;;;;;;17.30;37.30;;;;;;5032812;28;19917;-84
2022/03/24 12:40:07;;;;;;;;;;;17.30;37.30;;;;;;5014101;28;19959;-84
2022/03/24 12:45:07;;;;;;;;;;;17.20;37.00;;;;;;5070331;28;19924;-86
2022/03/24 12:47:35;;;;;;;;;;;17.20;36.70;;;;;;5072640;28;20280;-86
2022/03/24 12:50:29;;;;;;;;;;;17.20;37.30;;;;;;5071997;28;19908;-86
2022/03/24 12:52:55;;;;;;;;;;;17.20;37.00;;;;;;5043527;28;19916;-86
2022/03/24 12:55:26;;;;;;;;;;;17.30;36.60;;;;;;5072964;28;20481;-86
2022/03/24 12:57:56;;;;;;;;;;;17.40;37.70;;;;;;5055173;28;19916;-86
2022/03/24 13:00:26;;;;;;;;;;;17.40;37.80;;;;;;5054914;28;20280;-86
2022/03/24 13:02:52;;;;;;;;;;;17.50;37.30;;;;;;5072529;28;20399;-85
2022/03/24 13:05:25;;;;;;;;;;;17.50;37.50;;;;;;5073248;28;20013;-86
2022/03/24 13:07:52;;;;;;;;;;;17.50;37.10;;;;;;5055138;28;19912;-86
2022/03/24 13:10:18;;;;;;;;;;;17.50;35.90;;;;;;5072266;28;20364;-86
2022/03/24 13:12:45;;;;;;;;;;;17.50;34.60;;;;;;5072766;28;19920;-85
2022/03/24 13:15:18;;;;;;;;;;;17.60;34.50;;;;;;5072355;28;19912;-85
2022/03/24 13:17:43;;;;;;;;;;;17.60;37.20;;;;;;5073542;28;19920;-86
2022/03/24 13:20:08;;;;;;;;;;;17.60;37.70;;;;;;5054833;28;20365;-86
2022/03/24 13:22:34;;;;;;;;;;;17.60;37.00;;;;;;5072238;28;19924;-86
2022/03/24 13:25:07;;;;;;;;;;;17.60;39.40;;;;;;5072674;28;19912;-86
2022/03/24 13:27:36;;;;;;;;;;;17.60;35.20;;;;;;5071963;28;20284;-86
2022/03/24 13:30:05;;;;;;;;;;;17.50;33.50;;;;;;5072226;28;20376;-86
2022/03/24 13:32:31;;;;;;;;;;;17.50;33.70;;;;;;5072503;28;20209;-86
2022/03/24 13:34:58;;;;;;;;;;;17.50;33.50;;;;;;5054912;28;19999;-86
2022/03/24 13:37:24;;;;;;;;;;;17.40;33.70;;;;;;5072559;28;19923;-86
2022/03/24 13:39:51;;;;;;;;;;;17.40;34.20;;;;;;5071237;28;20369;-86
2022/03/24 13:42:16;;;;;;;;;;;17.40;33.60;;;;;;5072064;28;19924;-86
2022/03/24 13:44:44;;;;;;;;;;;17.40;34.30;;;;;;5072325;28;20250;-87
2022/03/24 13:47:10;;;;;;;;;;;17.40;33.90;;;;;;5054232;28;19935;-86
2022/03/24 13:49:35;;;;;;;;;;;17.50;33.20;;;;;;5053856;28;19908;-84
2022/03/24 13:52:01;;;;;;;;;;;17.50;33.90;;;;;;5072118;28;19942;-87
2022/03/24 13:54:26;;;;;;;;;;;17.50;32.60;;;;;;5071182;28;19912;-86
2022/03/24 13:56:53;;;;;;;;;;;17.40;31.80;;;;;;5072023;28;19908;-86
2022/03/24 13:59:24;;;;;;;;;;;17.40;33.50;;;;;;5036767;28;20035;-87
2022/03/24 14:01:59;;;;;;;;;;;17.40;33.30;;;;;;5071630;28;19908;-86
2022/03/24 14:04:25;;;;;;;;;;;17.40;32.60;;;;;;5054063;28;19943;-86
2022/03/24 14:07:04;;;;;;;;;;;17.40;33.50;;;;;;5071691;28;19959;-86
2022/03/24 14:09:29;;;;;;;;;;;17.40;33.40;;;;;;5071265;28;19919;-86
2022/03/24 14:12:02;;;;;;;;;;;17.40;32.90;;;;;;5071749;28;19912;-86
2022/03/24 14:14:27;;;;;;;;;;;17.40;32.10;;;;;;5072233;28;19916;-86
2022/03/24 14:16:53;;;;;;;;;;;17.40;31.80;;;;;;5053818;28;19917;-86
2022/03/24 14:19:19;;;;;;;;;;;17.40;32.60;;;;;;5053190;28;20013;-85
2022/03/24 14:22:01;;;;;;;;;;;17.40;34.00;;;;;;5072166;28;20308;-86
2022/03/24 14:24:30;;;;;;;;;;;17.50;35.70;;;;;;5071762;28;19951;-86
2022/03/24 14:27:11;;;;;;;;;;;17.50;32.30;;;;;;5053942;28;19909;-86
2022/03/24 14:29:38;;;;;;;;;;;17.50;32.10;;;;;;5053012;28;19917;-86